METAR Data
IDs: Format: Raw Decoded Include TAF

Data at: 0356 UTC 01 Feb 2023

LIMC 010350Z 02006KT CAVOK M02/M04 Q1020 NOSIG

TAF LIMC 312300Z 0100/0206 35005KT 7000 NSC
  TEMPO 0100/0107 3000 BR


LIME 010350Z AUTO VRB02KT 9999 NCD 00/M05 Q1020

TAF LIME 312300Z 0100/0124 02005KT CAVOK
  BECMG 0109/0111 24010KT
  BECMG 0115/0117 01006KT


LIMF 010350Z VRB01KT CAVOK 00/M05 Q1020

TAF LIMF 312300Z 0100/0124 VRB05KT CAVOK

No METAR found for LIMG
No TAF found for LIMG

LIMJ 010350Z 08006KT 9999 BKN025 10/05 Q1022

TAF LIMJ 312300Z 0100/0124 36005KT 9999 FEW025
  BECMG 0106/0108 19010KT
  BECMG 0117/0119 VRB05KT


LIML 010350Z VRB01KT CAVOK 02/01 Q1020 NOSIG

TAF LIML 312300Z 0100/0124 31005KT CAVOK
  TEMPO 0102/0107 4000 BR
  BECMG 0109/0111 25010KT
  BECMG 0115/0117 32005KT


No METAR found for LIMP

TAF LIMP 311700Z 3118/0118 24005KT 6000 NSC
  TEMPO 3118/0107 3000 BR


No METAR found for LIPA

TAF LIPA 312000Z 3121/0106 01005KT CAVOK
  TEMPO 3121/0106 5000 BR NSC


No METAR found for LIPB

TAF LIPB 311700Z 3118/0118 VRB05KT CAVOK

LIPC 010255Z 21005KT CAVOK 01/M02 Q1021 RMK SKC VIS MIN 9999 WIND THR11 21006KT WIND THR29 20004KT BLU

TAF LIPC 010200Z 0103/0112 26005KT 5000 BR NSC
  TEMPO 0103/0106 1500 BR SCT005


LIPH 010350Z AUTO VRB02KT 7000 NCD 01/M02 Q1021

TAF LIPH 312300Z 0100/0124 VRB04KT 6000 NSC
  TEMPO 0100/0107 1500 BR


LIPI 010255Z 35006KT 9000 BKN020 M00/M03 Q1020 RMK BKN VIS MIN 9000 WIND THR06 02006KT WIND THR24 02005KT WHT

TAF LIPI 311700Z 3118/0103 03007KT CAVOK
  TEMPO 3118/3121 7000 SCT080


No METAR found for LIPK

TAF LIPK 311700Z 3118/0118 VRB05KT CAVOK
  TEMPO 3122/0107 2000 BR


LIPL 010255Z 06002KT 2500 BR NSC M01/M02 Q1020 RMK SKC VIS MIN 2500 WIND THR31 06003KT WIND THR13 03004KT YLO

TAF LIPL 010200Z 0103/0112 29005KT 3000 BR NSC
  TEMPO 0103/0106 1500 MIFG FEW005


LIPO 010350Z AUTO VRB03KT 5000 BR NCD 01/00 Q1020

TAF LIPO 312300Z 0100/0124 VRB05KT 4000 BR NSC
  BECMG 0106/0108 8000
  TEMPO 0120/0124 4000 BR


LIPQ 010350Z AUTO 05002KT 9999 BKN028/// 03/M01 Q1021

TAF LIPQ 312300Z 0100/0124 VRB05KT 8000 NSC

LIPR 010350Z AUTO 20004KT 180V340 9999 NCD M01/M03 Q1021

TAF LIPR 312300Z 0100/0124 VRB05KT CAVOK
  TEMPO 0100/0107 2000 BR


LIPZ 010350Z 36004KT 6000 SCT015 01/M02 Q1020 NOSIG

TAF LIPZ 312300Z 0100/0206 03006KT 2000 BR NSC
  BECMG 0106/0108 7000
  BECMG 0118/0120 2000 BR


LIRP 010345Z 13003KT 9999 FEW035 02/02 Q1023 NOSIG

TAF LIRP 311700Z 3118/0118 13008KT 9999 FEW040
  BECMG 3122/3124 9999 SCT020 BKN030
  TEMPO 3123/0106 5000 BR SCT010


LFKB 010330Z AUTO 21006KT CAVOK 06/02 Q1023 NOSIG

TAF LFKB 010200Z 0103/0203 22005KT CAVOK TX14/0112Z TN05/0104Z
  BECMG 0110/0112 02010KT
  BECMG 0118/0120 24004KT


LFKC 010330Z AUTO VRB02KT CAVOK 08/02 Q1022 NOSIG

TAF LFKC 010200Z 0103/0203 18005KT 9999 FEW030 TX14/0111Z TN04/0104Z
  BECMG 0111/0113 35005KT
  BECMG 0117/0119 18006KT


LFKJ 010330Z AUTO 04006KT CAVOK 05/03 Q1024 NOSIG

TAF LFKJ 010200Z 0103/0203 05006KT CAVOK
  BECMG 0103/0105 BKN020
  BECMG 0110/0112 21006KT CAVOK
  BECMG 0117/0119 05006KT


LFLL 010330Z 00000KT 9999 FEW022 BKN040 03/01 Q1029 NOSIG

TAF LFLL 312300Z 0100/0206 36006KT 9999 BKN030
  PROB40
  TEMPO 0100/0111 VRB02KT BKN011
  PROB30
  TEMPO 0100/0108 1500 MIFG OVC007
  TEMPO 0200/0206 VRB02KT


LFML 010330Z AUTO 30012KT CAVOK 06/01 Q1023 NOSIG

TAF LFML 010200Z 0103/0209 33013KT CAVOK TX13/0115Z TN03/0203Z
  TEMPO 0103/0106 VRB03KT
  TEMPO 0111/0120 34015G25KT
  TEMPO 0120/0209 34020G30KT


LFMN 010330Z 32011KT CAVOK 07/00 Q1022 NOSIG

TAF LFMN 010200Z 0103/0209 33010KT CAVOK
  TEMPO 0110/0118 09008KT
  PROB30
  TEMPO 0121/0205 BKN014


LOWI 010350Z AUTO VRB01KT 9999 NCD M04/M05 Q1022

TAF LOWI 312315Z 0100/0124 09004KT 9999 FEW050 BKN080 TX07/0115Z TNM00/0105Z
  PROB30
  TEMPO 0100/0112 27007KT -SNRA
  PROB30
  TEMPO 0112/0118 28015G25KT


LOWL 010350Z AUTO 25011KT 9999 -RA FEW024 BKN026 04/01 Q1020

TAF LOWL 312315Z 0100/0124 27015KT 9999 FEW020 BKN030 TX06/0113Z TN03/0106Z
  TEMPO 0100/0124 28020G30KT -SHRA
  PROB40
  TEMPO 0106/0111 SHRASN BKN014
  PROB40
  TEMPO 0111/0115 27025G40KT
  PROB40
  TEMPO 0120/0124 27025G40KT SHRASN BKN014


LOWW 010350Z 30020G30KT CAVOK 05/M01 Q1017 NOSIG

TAF LOWW 010215Z 0103/0209 29020G30KT 9999 SCT050 TX08/0113Z TN04/0204Z
  TEMPO 0103/0116 28030G40KT
  TEMPO 0109/0112 -SHRA
  TEMPO 0120/0203 28030G40KT -SHRA
  TEMPO 0203/0209 28012KT


LSGG 010350Z AUTO VRB01KT CAVOK M03/M03 Q1028 NOSIG

TAF LSGG 010225Z 0103/0209 VRB02KT CAVOK TX08/0115Z TNM03/0106Z TNM01/0206Z
  BECMG 0111/0113 23007KT


LSZH 010350Z AUTO VRB03KT 9999 FEW029 BKN050 00/M02 Q1026 NOSIG

TAF LSZH 010225Z 0103/0209 VRB02KT 9999 FEW025 TX07/0114Z TN00/0104Z TN03/0205Z
  PROB30
  TEMPO 0106/0110 RASN
  BECMG 0109/0112 23010KT
  TEMPO 0111/0118 26015G25KT
  PROB30
  TEMPO 0121/0209 RASN